createdAt,value
2023-02-11T00:00:11.052Z,81.63
2023-02-11T00:03:00.567Z,81.39
2023-02-11T00:05:29.752Z,81.36
2023-02-11T00:07:59.289Z,81.61
2023-02-11T00:10:28.399Z,81.28
2023-02-11T00:12:57.875Z,81.43
2023-02-11T00:15:28.222Z,81.61
2023-02-11T00:17:57.610Z,81.78
2023-02-11T00:20:26.599Z,81.67
2023-02-11T00:22:55.855Z,81.59
2023-02-11T00:25:24.861Z,81.39
2023-02-11T00:27:54.115Z,81.96
2023-02-11T00:30:23.231Z,81.64
2023-02-11T00:32:53.936Z,81.64
2023-02-11T00:35:23.130Z,81.27
2023-02-11T00:37:54.234Z,81.49
2023-02-11T00:40:23.240Z,81.31
2023-02-11T00:42:52.533Z,81.60
2023-02-11T00:45:22.087Z,81.69
2023-02-11T00:47:51.388Z,81.49
2023-02-11T00:50:21.922Z,81.55
2023-02-11T00:52:51.348Z,81.24
2023-02-11T00:55:20.404Z,81.34
2023-02-11T00:57:50.375Z,81.20
2023-02-11T01:00:19.578Z,81.40
2023-02-11T01:02:49.029Z,81.25
2023-02-11T01:05:18.625Z,81.59
2023-02-11T01:07:49.396Z,81.49
2023-02-11T01:10:18.930Z,81.18
2023-02-11T01:12:48.536Z,81.22
2023-02-11T01:15:19.767Z,81.30
2023-02-11T01:17:49.176Z,81.41
2023-02-11T01:20:20.893Z,81.01
2023-02-11T01:22:51.648Z,80.35
2023-02-11T01:25:20.570Z,80.66
2023-02-11T01:27:49.879Z,80.55
2023-02-11T01:30:18.970Z,80.75
2023-02-11T01:32:49.891Z,80.76
2023-02-11T01:35:18.989Z,80.71
2023-02-11T01:37:48.280Z,80.78
2023-02-11T01:40:19.600Z,81.29
2023-02-11T01:42:50.984Z,80.69
2023-02-11T01:45:53.877Z,80.99
2023-02-11T01:48:26.280Z,81.18
2023-02-11T01:50:58.619Z,80.98
2023-02-11T01:53:46.799Z,81.08
2023-02-11T01:56:36.441Z,81.11
2023-02-11T01:59:12.558Z,80.96
2023-02-11T02:01:46.572Z,81.20
2023-02-11T02:04:19.751Z,81.32
2023-02-11T02:06:54.404Z,81.22
2023-02-11T02:09:27.653Z,81.34
2023-02-11T02:11:58.219Z,81.67
2023-02-11T02:14:28.952Z,81.36
2023-02-11T02:16:58.155Z,81.79
2023-02-11T02:19:55.419Z,81.66
2023-02-11T02:22:54.958Z,81.83
2023-02-11T02:25:49.883Z,81.74
2023-02-11T02:28:47.196Z,82.10
2023-02-11T02:31:36.813Z,82.36
2023-02-11T02:34:10.700Z,82.06
2023-02-11T02:36:49.144Z,82.08
2023-02-11T02:39:25.153Z,81.96
2023-02-11T02:41:56.157Z,82.02
2023-02-11T02:44:25.284Z,82.11
2023-02-11T02:46:54.655Z,82.19
2023-02-11T02:49:25.114Z,82.13
2023-02-11T02:52:17.320Z,82.38
2023-02-11T02:55:15.947Z,82.56
2023-02-11T02:58:03.900Z,82.54
2023-02-11T03:00:44.239Z,82.25
2023-02-11T03:03:24.745Z,82.40
2023-02-11T03:06:04.070Z,82.32
2023-02-11T03:08:39.947Z,82.45
2023-02-11T03:11:10.846Z,82.36
2023-02-11T03:13:42.240Z,82.79
2023-02-11T03:16:14.987Z,82.28
2023-02-11T03:18:49.597Z,82.41
2023-02-11T03:21:21.375Z,82.27
2023-02-11T03:23:55.205Z,82.26
2023-02-11T03:26:29.574Z,82.17
2023-02-11T03:29:05.828Z,82.76
2023-02-11T03:31:41.537Z,82.86
2023-02-11T03:34:15.714Z,82.79
2023-02-11T03:36:52.067Z,82.59
2023-02-11T03:39:25.809Z,82.87
2023-02-11T03:41:58.598Z,82.18
2023-02-11T03:44:33.860Z,82.38
2023-02-11T03:47:06.271Z,82.68
2023-02-11T03:49:37.310Z,82.26
2023-02-11T03:52:11.363Z,82.83
2023-02-11T03:54:43.250Z,82.58
2023-02-11T03:57:12.487Z,82.21
2023-02-11T03:59:57.737Z,82.62
2023-02-11T04:02:30.520Z,82.42
2023-02-11T04:05:00.548Z,82.96
2023-02-11T04:07:31.770Z,83.22
2023-02-11T04:10:01.853Z,83.07
2023-02-11T04:12:31.010Z,82.90
2023-02-11T04:15:00.463Z,82.94
2023-02-11T04:17:29.466Z,83.10
2023-02-11T04:19:58.769Z,82.66
2023-02-11T04:22:27.911Z,83.23
2023-02-11T04:24:58.696Z,83.35
2023-02-11T04:27:27.960Z,83.35
2023-02-11T04:29:57.365Z,83.53
2023-02-11T04:32:26.422Z,83.77
2023-02-11T04:34:55.927Z,83.96
2023-02-11T04:37:24.896Z,84.37
2023-02-11T04:39:54.191Z,84.33
2023-02-11T04:42:24.833Z,84.26
2023-02-11T04:44:54.270Z,84.13
2023-02-11T04:47:23.411Z,84.45
2023-02-11T04:49:52.830Z,84.46
2023-02-11T04:52:21.858Z,84.20
2023-02-11T04:54:51.221Z,84.15
2023-02-11T04:57:20.226Z,84.26
2023-02-11T04:59:50.951Z,84.66
2023-02-11T05:02:20.038Z,84.35
2023-02-11T05:04:49.435Z,84.50
2023-02-11T05:07:18.768Z,84.82
2023-02-11T05:09:48.090Z,84.79
2023-02-11T05:12:17.187Z,85.08
2023-02-11T05:14:47.091Z,85.16
2023-02-11T05:17:17.478Z,84.93
2023-02-11T05:19:46.799Z,84.85
2023-02-11T05:22:15.858Z,85.34
2023-02-11T05:24:45.195Z,85.07
2023-02-11T05:27:14.378Z,85.41
2023-02-11T05:29:43.758Z,85.28
2023-02-11T05:32:12.705Z,85.02
2023-02-11T05:34:43.524Z,85.75
2023-02-11T05:37:12.618Z,85.83
2023-02-11T05:39:41.917Z,85.70
2023-02-11T05:42:11.050Z,86.10
2023-02-11T05:44:40.604Z,86.27
2023-02-11T05:47:09.639Z,86.30
2023-02-11T05:49:39.024Z,86.52
2023-02-11T05:52:09.413Z,86.74
2023-02-11T05:54:38.819Z,86.92
2023-02-11T05:57:07.828Z,86.68
2023-02-11T05:59:37.170Z,87.49
2023-02-11T06:02:07.969Z,87.12
2023-02-11T06:04:38.137Z,87.57
2023-02-11T06:07:08.658Z,87.07
2023-02-11T06:09:40.971Z,87.09
2023-02-11T06:12:10.061Z,87.31
2023-02-11T06:14:39.406Z,87.37
2023-02-11T06:17:08.758Z,87.65
2023-02-11T06:19:38.299Z,87.23
2023-02-11T06:22:08.743Z,87.59
2023-02-11T06:24:58.909Z,87.86
2023-02-11T06:27:27.265Z,87.38
2023-02-11T06:29:56.783Z,87.43
2023-02-11T06:32:42.982Z,87.85
2023-02-11T06:35:13.273Z,87.99
2023-02-11T06:37:44.237Z,87.99
2023-02-11T06:40:14.142Z,88.28
2023-02-11T06:42:43.400Z,88.36
2023-02-11T06:45:13.396Z,88.18
2023-02-11T06:47:43.159Z,87.88
2023-02-11T06:50:15.623Z,87.96
2023-02-11T06:52:46.273Z,88.25
2023-02-11T06:55:16.188Z,87.96
2023-02-11T06:57:45.255Z,88.06
2023-02-11T07:00:15.849Z,87.96
2023-02-11T07:02:44.854Z,88.32
2023-02-11T07:05:14.162Z,88.22
2023-02-11T07:07:43.269Z,87.94
2023-02-11T07:10:14.253Z,87.81
2023-02-11T07:12:43.306Z,87.49
2023-02-11T07:15:12.582Z,88.02
2023-02-11T07:17:41.765Z,87.98
2023-02-11T07:20:14.751Z,88.26
2023-02-11T07:22:43.886Z,88.08
2023-02-11T07:25:14.695Z,88.14
2023-02-11T07:27:43.710Z,88.29
2023-02-11T07:30:14.574Z,88.29
2023-02-11T07:32:43.651Z,88.29
2023-02-11T07:35:12.918Z,88.58
2023-02-11T07:37:42.644Z,88.64
2023-02-11T07:40:14.043Z,89.39
2023-02-11T07:42:43.061Z,89.01
2023-02-11T07:45:12.670Z,89.21
2023-02-11T07:47:42.791Z,89.48
2023-02-11T07:50:11.902Z,89.87
2023-02-11T07:52:40.926Z,89.35
2023-02-11T07:55:11.588Z,89.54
2023-02-11T07:57:42.195Z,89.11
2023-02-11T08:00:12.994Z,89.56
2023-02-11T08:02:41.807Z,89.86
2023-02-11T08:05:11.187Z,90.01
2023-02-11T08:07:40.293Z,89.62
2023-02-11T08:10:10.088Z,89.68
2023-02-11T08:12:39.102Z,89.22
2023-02-11T08:15:10.679Z,89.97
2023-02-11T08:17:39.799Z,90.21
2023-02-11T08:20:09.688Z,90.09
2023-02-11T08:22:38.837Z,89.60
2023-02-11T08:25:08.807Z,89.85
2023-02-11T08:27:37.876Z,89.30
2023-02-11T08:30:09.930Z,89.31
2023-02-11T08:32:39.489Z,89.59
2023-02-11T08:35:09.496Z,89.56
2023-02-11T08:37:38.492Z,89.19
2023-02-11T08:40:08.465Z,89.06
2023-02-11T08:42:37.619Z,89.69
2023-02-11T08:45:07.743Z,89.75
2023-02-11T08:47:38.240Z,89.84
2023-02-11T08:50:08.348Z,90.27
2023-02-11T08:52:38.093Z,90.03
2023-02-11T08:55:08.252Z,89.81
2023-02-11T08:57:37.632Z,89.63
2023-02-11T09:00:08.048Z,89.72
2023-02-11T09:02:38.536Z,90.37
2023-02-11T09:05:08.878Z,89.75
2023-02-11T09:07:37.937Z,90.12
2023-02-11T09:10:07.804Z,89.93
2023-02-11T09:12:36.806Z,89.92
2023-02-11T09:15:06.679Z,90.60
2023-02-11T09:17:37.105Z,89.91
2023-02-11T09:20:09.786Z,90.69
2023-02-11T09:22:39.810Z,90.71
2023-02-11T09:25:09.439Z,90.18
2023-02-11T09:27:38.488Z,90.95
2023-02-11T09:30:08.750Z,91.50
2023-02-11T09:32:39.265Z,91.31
2023-02-11T09:35:09.123Z,91.12
2023-02-11T09:37:38.137Z,92.19
2023-02-11T09:40:08.360Z,92.23
2023-02-11T09:42:50.903Z,91.26
2023-02-11T09:45:22.619Z,91.61
2023-02-11T09:47:57.459Z,91.50
2023-02-11T09:50:32.236Z,91.51
2023-02-11T09:53:05.134Z,91.73
2023-02-11T09:55:38.091Z,91.33
2023-02-11T09:58:13.200Z,91.07
2023-02-11T10:00:47.800Z,90.77
2023-02-11T10:03:38.088Z,90.26
2023-02-11T10:06:26.269Z,90.71
2023-02-11T10:09:05.871Z,91.16
2023-02-11T10:11:47.343Z,91.75
2023-02-11T10:14:30.184Z,92.46
2023-02-11T10:17:13.334Z,91.89
2023-02-11T10:20:00.882Z,92.02
2023-02-11T10:22:36.320Z,92.13
2023-02-11T10:25:18.472Z,91.69
2023-02-11T10:27:48.350Z,91.45
2023-02-11T10:30:29.435Z,91.07
2023-02-11T10:33:04.230Z,91.04
2023-02-11T10:35:34.733Z,90.67
2023-02-11T10:38:04.154Z,90.48
2023-02-11T10:40:33.900Z,90.24
2023-02-11T10:43:07.134Z,91.06
2023-02-11T10:45:40.458Z,89.72
2023-02-11T10:48:41.658Z,90.21
2023-02-11T10:51:19.596Z,90.03
2023-02-11T10:53:50.366Z,89.49
2023-02-11T10:56:27.098Z,89.78
2023-02-11T10:59:01.603Z,89.90
2023-02-11T11:01:42.579Z,90.10
2023-02-11T11:04:38.293Z,90.32
2023-02-11T11:07:31.516Z,90.02
2023-02-11T11:10:04.482Z,89.71
2023-02-11T11:12:47.311Z,90.28
2023-02-11T11:15:21.457Z,89.83
2023-02-11T11:17:51.178Z,89.92
2023-02-11T11:20:28.517Z,90.50
2023-02-11T11:23:17.069Z,90.00
2023-02-11T11:25:59.368Z,90.20
2023-02-11T11:28:32.109Z,90.59
2023-02-11T11:31:02.226Z,90.60
2023-02-11T11:33:35.429Z,90.21
2023-02-11T11:36:08.764Z,89.85
2023-02-11T11:38:45.857Z,90.00
2023-02-11T11:41:17.533Z,90.20
2023-02-11T11:43:57.079Z,89.79
2023-02-11T11:46:30.321Z,90.03
2023-02-11T11:49:08.673Z,90.04
2023-02-11T11:51:41.316Z,90.32
2023-02-11T11:54:16.618Z,89.60
2023-02-11T11:56:57.102Z,90.02
2023-02-11T11:59:26.356Z,90.11
2023-02-11T12:02:21.924Z,90.08
2023-02-11T12:05:03.937Z,90.23
2023-02-11T12:11:59.145Z,89.89
2023-02-11T12:14:38.842Z,89.94
2023-02-11T12:17:21.114Z,90.20
2023-02-11T12:24:37.869Z,89.61
2023-02-11T12:27:57.238Z,90.13
2023-02-11T12:30:54.372Z,89.89
2023-02-11T12:42:57.458Z,90.31
2023-02-11T12:45:43.378Z,89.75
2023-02-11T12:52:44.583Z,90.02
2023-02-11T12:55:21.627Z,89.57
2023-02-11T12:57:54.176Z,89.57
2023-02-11T13:00:29.600Z,88.66
2023-02-11T13:03:06.394Z,89.13
2023-02-11T13:05:41.796Z,89.40
2023-02-11T13:08:17.143Z,88.72
2023-02-11T13:10:52.364Z,88.86
2023-02-11T13:13:26.777Z,88.84
2023-02-11T13:16:01.640Z,88.76
2023-02-11T13:18:50.795Z,88.69
2023-02-11T13:22:02.956Z,88.61
2023-02-11T13:24:44.481Z,88.81
2023-02-11T13:27:26.270Z,88.83
2023-02-11T13:30:24.525Z,88.45
2023-02-11T13:33:08.640Z,88.84
2023-02-11T13:35:41.022Z,88.78
2023-02-11T13:38:22.750Z,88.17
2023-02-11T13:41:17.864Z,88.00
2023-02-11T13:43:58.277Z,88.22
2023-02-11T13:46:30.297Z,87.78
2023-02-11T13:48:59.974Z,87.92
2023-02-11T13:51:40.611Z,88.20
2023-02-11T13:54:20.641Z,88.28
2023-02-11T13:57:23.352Z,87.27
2023-02-11T13:59:55.287Z,87.49
2023-02-11T14:02:47.135Z,87.80
2023-02-11T14:05:55.967Z,87.52
2023-02-11T14:08:44.835Z,87.51
2023-02-11T14:11:52.163Z,87.88
2023-02-11T14:14:26.538Z,87.57
2023-02-11T14:17:31.516Z,87.53
2023-02-11T14:20:04.427Z,87.35
2023-02-11T14:22:45.393Z,87.24
2023-02-11T14:25:23.240Z,87.49
2023-02-11T14:27:57.304Z,87.38
2023-02-11T14:30:47.299Z,87.44
2023-02-11T14:33:48.000Z,86.91
2023-02-11T14:36:43.692Z,86.75
2023-02-11T14:39:23.056Z,87.57
2023-02-11T14:41:55.293Z,87.31
2023-02-11T14:44:26.564Z,86.68
2023-02-11T14:46:58.009Z,87.06
2023-02-11T14:49:29.627Z,86.83
2023-02-11T14:52:06.282Z,87.36
2023-02-11T14:54:36.594Z,86.82
2023-02-11T14:57:16.866Z,86.62
2023-02-11T15:00:02.376Z,86.59
2023-02-11T15:02:36.514Z,86.33
2023-02-11T15:05:21.342Z,86.31
2023-02-11T15:07:53.815Z,86.72
2023-02-11T15:10:31.576Z,86.43
2023-02-11T15:13:04.244Z,86.47
2023-02-11T15:15:36.051Z,86.60
2023-02-11T15:18:06.883Z,86.47
2023-02-11T15:20:37.016Z,86.05
2023-02-11T15:23:16.703Z,86.70
2023-02-11T15:25:55.626Z,86.40
2023-02-11T15:28:29.170Z,86.82
2023-02-11T15:31:02.536Z,86.24
2023-02-11T15:33:33.979Z,86.52
2023-02-11T15:36:04.692Z,86.69
2023-02-11T15:38:34.488Z,86.62
2023-02-11T15:41:07.607Z,86.52
2023-02-11T15:43:48.364Z,86.18
2023-02-11T15:46:20.410Z,86.48
2023-02-11T15:48:52.262Z,86.29
2023-02-11T15:51:25.490Z,86.87
2023-02-11T15:53:58.558Z,86.07
2023-02-11T15:56:30.953Z,86.04
2023-02-11T15:59:13.037Z,86.65
2023-02-11T16:01:42.704Z,86.27
2023-02-11T16:04:19.045Z,86.16
2023-02-11T16:06:48.927Z,86.79
2023-02-11T16:09:31.676Z,86.05
2023-02-11T16:12:03.732Z,86.11
2023-02-11T16:14:39.421Z,86.12
2023-02-11T16:17:12.622Z,86.67
2023-02-11T16:19:47.648Z,85.84
2023-02-11T16:22:20.258Z,85.69
2023-02-11T16:24:52.433Z,86.38
2023-02-11T16:27:25.444Z,85.65
2023-02-11T16:29:56.584Z,85.64
2023-02-11T16:32:51.412Z,86.30
2023-02-11T16:35:21.538Z,86.31
2023-02-11T16:37:51.260Z,85.53
2023-02-11T16:40:21.093Z,85.55
2023-02-11T16:42:50.775Z,85.24
2023-02-11T16:45:21.533Z,85.04
2023-02-11T16:47:50.584Z,85.27
2023-02-11T16:50:26.264Z,84.65
2023-02-11T16:52:55.645Z,84.46
2023-02-11T16:55:25.325Z,84.77
2023-02-11T16:57:56.928Z,84.44
2023-02-11T17:00:28.404Z,84.46
2023-02-11T17:02:58.047Z,84.09
2023-02-11T17:05:27.868Z,84.19
2023-02-11T17:07:56.861Z,84.26
2023-02-11T17:10:27.172Z,84.51
2023-02-11T17:12:56.297Z,84.10
2023-02-11T17:15:27.558Z,84.11
2023-02-11T17:17:57.395Z,84.91
2023-02-11T17:20:27.497Z,84.14
2023-02-11T17:22:56.568Z,84.67
2023-02-11T17:25:25.919Z,84.14
2023-02-11T17:27:55.241Z,84.19
2023-02-11T17:30:25.246Z,84.34
2023-02-11T17:32:56.646Z,84.30
2023-02-11T17:35:26.652Z,84.31
2023-02-11T17:37:58.857Z,84.16
2023-02-11T17:40:31.648Z,84.40
2023-02-11T17:43:02.864Z,84.32
2023-02-11T17:45:33.326Z,83.57
2023-02-11T17:48:04.635Z,84.07
2023-02-11T17:50:37.753Z,83.60
2023-02-11T17:53:07.193Z,83.73
2023-02-11T17:55:38.607Z,83.67
2023-02-11T17:58:07.979Z,83.48
2023-02-11T18:00:39.758Z,83.48
2023-02-11T18:03:11.587Z,82.88
2023-02-11T18:05:41.196Z,83.33
2023-02-11T18:08:10.428Z,82.73
2023-02-11T18:10:43.354Z,82.94
2023-02-11T18:13:13.782Z,82.56
2023-02-11T18:15:45.408Z,82.25
2023-02-11T18:18:15.982Z,82.04
2023-02-11T18:20:46.758Z,82.40
2023-02-11T18:23:15.836Z,81.69
2023-02-11T18:25:45.297Z,81.17
2023-02-11T18:28:15.266Z,81.58
2023-02-11T18:30:44.737Z,81.44
2023-02-11T18:33:16.393Z,81.57
2023-02-11T18:35:49.299Z,81.53
2023-02-11T18:38:20.358Z,81.76
2023-02-11T18:40:52.356Z,80.83
2023-02-11T18:43:21.997Z,80.27
2023-02-11T18:45:52.380Z,80.87
2023-02-11T18:48:22.908Z,80.74
2023-02-11T18:50:52.600Z,80.74
2023-02-11T18:53:22.304Z,80.72
2023-02-11T18:55:53.713Z,80.77
2023-02-11T18:58:23.085Z,80.51
2023-02-11T19:00:52.800Z,80.59
2023-02-11T19:03:24.710Z,80.43
2023-02-11T19:05:55.057Z,80.42
2023-02-11T19:08:25.036Z,80.60
2023-02-11T19:10:56.033Z,80.60
2023-02-11T19:13:29.877Z,80.32
2023-02-11T19:16:01.313Z,80.24
2023-02-11T19:18:31.806Z,80.25
2023-02-11T19:21:01.409Z,79.87
2023-02-11T19:23:30.490Z,80.00
2023-02-11T19:26:00.160Z,80.06
2023-02-11T19:28:31.022Z,79.77
2023-02-11T19:31:06.370Z,80.25
2023-02-11T19:33:37.464Z,79.92
2023-02-11T19:36:09.819Z,79.79
2023-02-11T19:38:39.744Z,79.61
2023-02-11T19:41:09.116Z,79.82
2023-02-11T19:43:40.907Z,79.43
2023-02-11T19:46:10.876Z,79.59
2023-02-11T19:48:41.777Z,79.69
2023-02-11T19:51:13.383Z,79.35
2023-02-11T19:53:42.816Z,79.66
2023-02-11T19:56:13.959Z,79.54
2023-02-11T19:58:44.190Z,79.73
2023-02-11T20:01:16.209Z,79.82
2023-02-11T20:03:50.128Z,79.75
2023-02-11T20:06:23.547Z,79.51
2023-02-11T20:08:58.337Z,79.82
2023-02-11T20:11:30.049Z,79.77
2023-02-11T20:13:59.437Z,79.93
2023-02-11T20:16:46.761Z,79.81
2023-02-11T20:19:21.734Z,79.84
2023-02-11T20:21:55.672Z,79.60
2023-02-11T20:24:26.340Z,79.87
2023-02-11T20:26:56.516Z,79.77
2023-02-11T20:29:26.243Z,79.82
2023-02-11T20:31:56.202Z,79.86
2023-02-11T20:34:26.812Z,79.91
2023-02-11T20:36:56.646Z,79.96
2023-02-11T20:39:27.483Z,79.85
2023-02-11T20:41:57.713Z,80.03
2023-02-11T20:44:27.031Z,79.51
2023-02-11T20:46:56.498Z,79.78
2023-02-11T20:49:28.516Z,79.57
2023-02-11T20:51:58.571Z,79.37
2023-02-11T20:54:27.941Z,79.50
2023-02-11T20:56:58.480Z,79.21
2023-02-11T20:59:28.250Z,78.90
2023-02-11T21:01:59.090Z,79.30
2023-02-11T21:04:32.603Z,79.19
2023-02-11T21:07:03.263Z,78.92
2023-02-11T21:09:34.362Z,79.07
2023-02-11T21:12:04.445Z,78.79
2023-02-11T21:14:34.071Z,78.83
2023-02-11T21:17:03.620Z,78.97
2023-02-11T21:19:34.430Z,78.98
2023-02-11T21:22:04.043Z,78.62
2023-02-11T21:24:34.201Z,78.52
2023-02-11T21:27:04.178Z,78.58
2023-02-11T21:29:36.647Z,78.80
2023-02-11T21:32:10.134Z,78.50
2023-02-11T21:34:40.684Z,78.76
2023-02-11T21:37:11.712Z,78.10
2023-02-11T21:39:42.416Z,78.39
2023-02-11T21:42:12.008Z,78.24
2023-02-11T21:44:41.084Z,78.03
2023-02-11T21:47:10.410Z,78.29
2023-02-11T21:49:40.964Z,78.39
2023-02-11T21:52:10.401Z,78.43
2023-02-11T21:54:39.383Z,78.03
2023-02-11T21:57:08.805Z,77.85
2023-02-11T21:59:37.950Z,77.94
2023-02-11T22:02:07.317Z,78.05
2023-02-11T22:04:36.538Z,77.90
2023-02-11T22:07:07.259Z,77.80
2023-02-11T22:09:38.913Z,77.93
2023-02-11T22:12:08.984Z,77.83
2023-02-11T22:14:38.659Z,77.57
2023-02-11T22:17:08.646Z,77.53
2023-02-11T22:19:37.976Z,77.85
2023-02-11T22:22:09.421Z,77.64
2023-02-11T22:24:38.569Z,77.33
2023-02-11T22:27:07.910Z,77.45
2023-02-11T22:29:37.036Z,77.57
2023-02-11T22:32:06.997Z,77.23
2023-02-11T22:34:36.369Z,77.09
2023-02-11T22:37:07.570Z,77.34
2023-02-11T22:39:36.700Z,77.34
2023-02-11T22:42:06.533Z,77.47
2023-02-11T22:44:36.320Z,77.67
2023-02-11T22:47:05.758Z,77.49
2023-02-11T22:49:35.626Z,77.13
2023-02-11T22:52:05.225Z,77.73
2023-02-11T22:54:36.125Z,77.62
2023-02-11T22:57:05.674Z,77.52
2023-02-11T22:59:34.731Z,77.40
2023-02-11T23:02:04.238Z,77.33
2023-02-11T23:04:33.441Z,77.72
2023-02-11T23:07:02.715Z,78.00
2023-02-11T23:09:31.772Z,77.60
2023-02-11T23:12:02.465Z,77.77
2023-02-11T23:14:31.548Z,77.52
2023-02-11T23:17:01.025Z,77.98
2023-02-11T23:19:30.130Z,78.18
2023-02-11T23:21:59.441Z,77.90
2023-02-11T23:24:28.532Z,77.79
2023-02-11T23:26:57.878Z,77.92
2023-02-11T23:29:28.319Z,77.75
2023-02-11T23:31:59.011Z,77.77
2023-02-11T23:34:27.947Z,77.70
2023-02-11T23:36:59.258Z,77.83
2023-02-11T23:39:28.437Z,78.16
2023-02-11T23:41:59.583Z,78.02
2023-02-11T23:44:30.423Z,77.99
2023-02-11T23:46:59.872Z,78.05
2023-02-11T23:49:28.853Z,77.80
2023-02-11T23:51:58.376Z,77.85
2023-02-11T23:54:27.477Z,77.98
2023-02-11T23:56:56.772Z,77.43
2023-02-11T23:59:25.824Z,77.34
